Time;durP1;ratioP1;P1;durP2;ratioP2;P2;SDS_P1;SDS_P2;PMS_P1;PMS_P2;Temp;Humidity;BMP_temperature;BMP_pressure;BME280_temperature;BME280_humidity;BME280_pressure;Samples;Min_cycle;Max_cycle;Signal;HPM_P1;HPM_P2
2021/04/28 00:00:17;;;;;;;6.60;0.70;;;20.10;43.40;;;;;;1011473;29;20040;-80
2021/04/28 00:00:47;;;;;;;1.85;0.73;;;20.10;43.40;;;;;;1009059;29;20025;-80
2021/04/28 00:01:18;;;;;;;4.07;0.90;;;20.10;43.40;;;;;;1014791;29;20020;-80
2021/04/28 00:01:49;;;;;;;4.32;0.90;;;20.10;43.40;;;;;;1008967;29;20033;-82
2021/04/28 00:02:19;;;;;;;3.10;0.80;;;20.10;43.40;;;;;;1012623;29;20031;-81
2021/04/28 00:02:50;;;;;;;7.60;0.90;;;20.10;43.70;;;;;;1012949;29;20021;-82
2021/04/28 00:03:20;;;;;;;3.30;0.70;;;20.10;43.60;;;;;;1012712;29;20032;-81
2021/04/28 00:03:51;;;;;;;2.25;0.80;;;20.10;43.60;;;;;;1020133;29;20023;-82
2021/04/28 00:04:22;;;;;;;4.60;0.80;;;20.20;43.80;;;;;;1012222;29;20074;-81
2021/04/28 00:04:52;;;;;;;4.90;0.95;;;20.20;43.80;;;;;;1012920;29;20452;-81
2021/04/28 00:05:23;;;;;;;9.40;1.00;;;20.20;43.80;;;;;;1008527;29;20472;-83
2021/04/28 00:05:53;;;;;;;7.85;1.00;;;20.20;43.80;;;;;;1008896;29;20017;-80
2021/04/28 00:06:24;;;;;;;6.70;0.90;;;20.20;44.20;;;;;;1008527;29;20017;-80
2021/04/28 00:06:54;;;;;;;9.63;1.50;;;20.20;44.50;;;;;;1014333;29;20039;-81
2021/04/28 00:07:25;;;;;;;9.38;0.80;;;20.20;44.40;;;;;;1012119;29;20036;-81
2021/04/28 00:07:56;;;;;;;15.45;1.27;;;20.30;44.40;;;;;;1016158;29;20039;-80
2021/04/28 00:08:26;;;;;;;4.82;0.90;;;20.20;44.30;;;;;;1009342;29;20029;-80
2021/04/28 00:08:57;;;;;;;4.78;0.63;;;20.20;44.20;;;;;;1007365;29;20096;-82
2021/04/28 00:09:27;;;;;;;6.50;0.93;;;20.30;44.30;;;;;;1008098;29;20025;-80
2021/04/28 00:09:58;;;;;;;9.75;0.85;;;20.30;44.20;;;;;;1004136;29;20113;-80
2021/04/28 00:10:31;;;;;;;11.95;1.20;;;20.20;44.10;;;;;;1012247;29;20084;-80
2021/04/28 00:11:01;;;;;;;3.28;0.88;;;20.20;44.00;;;;;;1015756;29;20507;-81
2021/04/28 00:11:35;;;;;;;3.58;1.20;;;20.20;44.10;;;;;;1008504;29;20036;-82
2021/04/28 00:12:06;;;;;;;4.90;0.75;;;20.20;44.00;;;;;;1008227;29;20036;-81
2021/04/28 00:12:37;;;;;;;5.30;1.00;;;20.20;44.00;;;;;;1008398;29;20025;-81
2021/04/28 00:13:09;;;;;;;5.72;0.93;;;20.20;44.10;;;;;;1008348;29;20047;-83
2021/04/28 00:13:39;;;;;;;2.53;0.90;;;20.20;44.10;;;;;;1003653;29;20029;-81
2021/04/28 00:14:10;;;;;;;4.10;1.08;;;20.20;44.00;;;;;;1008252;29;20013;-80
2021/04/28 00:14:41;;;;;;;9.50;1.27;;;20.20;44.00;;;;;;1008452;29;20021;-81
2021/04/28 00:15:14;;;;;;;12.48;1.08;;;20.20;44.00;;;;;;1014956;29;20364;-79
2021/04/28 00:15:46;;;;;;;12.50;1.08;;;20.20;44.00;;;;;;1012170;29;20017;-80
2021/04/28 00:16:19;;;;;;;9.02;0.88;;;20.20;44.10;;;;;;1011009;29;20150;-79
2021/04/28 00:16:50;;;;;;;11.57;1.25;;;20.20;44.00;;;;;;1012109;29;20044;-81
2021/04/28 00:17:20;;;;;;;6.40;0.73;;;20.20;44.10;;;;;;1012007;29;20051;-81
2021/04/28 00:17:51;;;;;;;5.38;0.68;;;20.20;44.10;;;;;;1004297;29;20017;-81
2021/04/28 00:18:22;;;;;;;5.97;0.70;;;20.20;44.10;;;;;;1002891;29;20421;-82
2021/04/28 00:18:52;;;;;;;3.88;0.80;;;20.10;44.10;;;;;;1003612;29;20401;-82
2021/04/28 00:19:23;;;;;;;4.10;0.80;;;20.20;44.20;;;;;;1000081;29;20500;-80
2021/04/28 00:19:53;;;;;;;5.15;0.88;;;20.10;44.20;;;;;;1004079;29;20021;-82
2021/04/28 00:20:24;;;;;;;4.90;0.80;;;20.20;44.20;;;;;;1015356;29;20031;-82
2021/04/28 00:20:54;;;;;;;13.13;1.05;;;20.20;44.10;;;;;;1011834;29;20024;-81
2021/04/28 00:21:25;;;;;;;6.63;0.90;;;20.20;44.10;;;;;;1011794;29;20094;-82
2021/04/28 00:21:56;;;;;;;7.00;1.05;;;20.10;44.10;;;;;;1004318;29;20034;-82
2021/04/28 00:22:26;;;;;;;3.45;0.85;;;20.10;44.10;;;;;;1004445;29;20026;-81
2021/04/28 00:22:57;;;;;;;4.30;0.98;;;20.20;44.10;;;;;;1008036;29;20405;-81
2021/04/28 00:23:27;;;;;;;3.70;0.75;;;20.20;44.10;;;;;;1011979;29;20491;-80
2021/04/28 00:23:58;;;;;;;4.68;0.80;;;20.20;44.10;;;;;;1010781;29;20041;-82
2021/04/28 00:24:28;;;;;;;6.10;0.80;;;20.20;44.20;;;;;;1008327;29;20032;-82
2021/04/28 00:25:00;;;;;;;3.10;0.80;;;20.10;44.10;;;;;;1016073;29;20066;-82
2021/04/28 00:25:30;;;;;;;3.75;0.80;;;20.10;44.20;;;;;;1012415;29;20021;-81
2021/04/28 00:26:01;;;;;;;2.47;0.70;;;20.10;44.20;;;;;;1005779;29;20101;-81
2021/04/28 00:26:31;;;;;;;7.57;1.15;;;20.10;44.20;;;;;;1004591;29;20041;-81
2021/04/28 00:27:02;;;;;;;3.97;0.70;;;20.10;44.30;;;;;;1008714;29;20033;-82
2021/04/28 00:27:33;;;;;;;1.02;0.70;;;20.10;44.30;;;;;;1012249;29;20025;-81
2021/04/28 00:28:07;;;;;;;5.43;0.88;;;20.10;44.30;;;;;;1007924;29;20045;-82
2021/04/28 00:28:37;;;;;;;1.27;0.73;;;20.10;44.30;;;;;;1004072;29;20030;-81
2021/04/28 00:29:08;;;;;;;4.43;1.00;;;20.10;44.30;;;;;;1005846;29;20480;-80
2021/04/28 00:29:38;;;;;;;3.50;0.82;;;20.10;44.30;;;;;;1004607;29;20014;-82
2021/04/28 00:30:10;;;;;;;2.58;0.80;;;20.10;44.30;;;;;;1003533;29;20150;-81
2021/04/28 00:30:41;;;;;;;2.80;0.80;;;20.10;44.40;;;;;;1012056;29;20021;-81
2021/04/28 00:31:11;;;;;;;1.88;0.75;;;20.10;44.30;;;;;;1012254;29;20008;-80
2021/04/28 00:31:42;;;;;;;8.07;0.80;;;20.10;44.30;;;;;;1012010;29;20020;-81
2021/04/28 00:32:13;;;;;;;2.40;0.70;;;20.10;44.30;;;;;;1003929;29;20225;-81
2021/04/28 00:32:44;;;;;;;3.38;0.88;;;20.10;44.20;;;;;;1004637;29;20105;-81
2021/04/28 00:33:14;;;;;;;5.57;0.90;;;20.10;44.20;;;;;;1008437;29;20027;-82
2021/04/28 00:33:45;;;;;;;3.38;0.68;;;20.10;44.30;;;;;;1011740;29;20016;-82
2021/04/28 00:34:15;;;;;;;1.05;0.63;;;20.10;44.30;;;;;;1008138;29;20392;-81
2021/04/28 00:34:46;;;;;;;5.70;0.80;;;20.10;44.30;;;;;;1005879;29;20021;-81
2021/04/28 00:35:16;;;;;;;4.10;0.70;;;20.10;44.30;;;;;;1004123;29;20030;-80
2021/04/28 00:35:47;;;;;;;6.38;0.85;;;20.10;44.30;;;;;;1011953;29;20031;-81
2021/04/28 00:36:17;;;;;;;7.85;1.00;;;20.10;44.40;;;;;;1015870;29;20439;-81
2021/04/28 00:36:48;;;;;;;3.53;0.68;;;20.10;44.40;;;;;;1010702;29;20016;-81
2021/04/28 00:37:18;;;;;;;8.00;1.20;;;20.10;44.50;;;;;;1012078;29;20016;-80
2021/04/28 00:37:49;;;;;;;1.80;0.73;;;20.10;44.50;;;;;;1004654;29;20025;-82
2021/04/28 00:38:19;;;;;;;7.38;1.15;;;20.10;44.50;;;;;;1007842;29;20046;-80
2021/04/28 00:38:50;;;;;;;2.13;0.80;;;20.10;44.60;;;;;;1007490;29;20037;-82
2021/04/28 00:39:21;;;;;;;2.90;0.70;;;20.10;44.60;;;;;;1003978;29;20018;-82
2021/04/28 00:39:51;;;;;;;11.30;0.70;;;20.10;44.60;;;;;;1004324;29;20029;-81
2021/04/28 00:40:31;;;;;;;2.65;0.80;;;20.10;44.60;;;;;;1011846;29;20423;-80
2021/04/28 00:41:07;;;;;;;4.67;0.80;;;20.10;44.60;;;;;;1004516;29;20042;-81
2021/04/28 00:41:38;;;;;;;3.30;0.80;;;20.10;44.60;;;;;;1010421;29;20775;-81
2021/04/28 00:42:08;;;;;;;4.63;0.73;;;20.10;44.60;;;;;;1011997;29;20080;-81
2021/04/28 00:42:41;;;;;;;2.90;0.60;;;20.10;44.50;;;;;;996585;29;20023;-80
2021/04/28 00:43:11;;;;;;;0.95;0.70;;;20.10;44.50;;;;;;1011644;29;20016;-81
2021/04/28 00:43:42;;;;;;;1.35;0.60;;;20.10;44.50;;;;;;1015566;29;20020;-81
2021/04/28 00:44:12;;;;;;;2.42;0.60;;;20.10;44.40;;;;;;1007720;29;20025;-80
2021/04/28 00:44:43;;;;;;;0.93;0.55;;;20.10;44.50;;;;;;1007863;29;20017;-81
2021/04/28 00:45:14;;;;;;;4.28;1.05;;;20.10;44.50;;;;;;1010956;29;20048;-79
2021/04/28 00:45:45;;;;;;;1.35;0.70;;;20.10;44.40;;;;;;1015900;29;20008;-81
2021/04/28 00:46:16;;;;;;;5.32;0.70;;;20.10;44.40;;;;;;1000335;29;20010;-80
2021/04/28 00:46:46;;;;;;;4.43;0.85;;;20.10;44.30;;;;;;1007828;29;20029;-81
2021/04/28 00:47:17;;;;;;;11.60;1.10;;;20.10;44.40;;;;;;1015791;29;20020;-79
2021/04/28 00:47:47;;;;;;;1.58;0.77;;;20.10;44.30;;;;;;1011923;29;20016;-81
2021/04/28 00:48:18;;;;;;;2.40;0.80;;;20.10;44.40;;;;;;1016090;29;20103;-81
2021/04/28 00:48:48;;;;;;;2.40;0.70;;;20.10;44.40;;;;;;1011463;29;20020;-81
2021/04/28 00:49:19;;;;;;;2.55;0.80;;;20.10;44.40;;;;;;1010690;29;20024;-81
2021/04/28 00:49:49;;;;;;;9.82;1.05;;;20.10;44.50;;;;;;1012523;29;20564;-83
2021/04/28 00:50:24;;;;;;;4.82;0.80;;;20.10;44.50;;;;;;1012194;29;20009;-82
2021/04/28 00:50:54;;;;;;;4.28;0.85;;;20.00;45.10;;;;;;1012126;29;20021;-81
2021/04/28 00:51:25;;;;;;;2.45;0.65;;;20.10;44.50;;;;;;1008154;29;20113;-83
2021/04/28 00:51:55;;;;;;;2.40;0.60;;;20.10;44.50;;;;;;1004652;29;20044;-81
2021/04/28 00:52:26;;;;;;;3.08;0.55;;;20.10;44.50;;;;;;1012324;29;20040;-81
2021/04/28 00:52:57;;;;;;;1.85;0.70;;;20.10;44.50;;;;;;1012126;29;20020;-80
2021/04/28 00:53:28;;;;;;;1.92;0.68;;;20.10;44.60;;;;;;1011972;29;20068;-83
2021/04/28 00:53:58;;;;;;;8.38;0.70;;;20.10;44.60;;;;;;1016166;29;20039;-83
2021/04/28 00:54:29;;;;;;;3.08;0.63;;;20.00;44.50;;;;;;1012686;29;20005;-80
2021/04/28 00:55:00;;;;;;;1.85;0.60;;;20.10;44.60;;;;;;1011600;29;20054;-81
2021/04/28 00:55:30;;;;;;;1.38;0.70;;;20.00;44.60;;;;;;1006838;29;20066;-80
2021/04/28 00:56:01;;;;;;;1.48;0.63;;;20.10;44.60;;;;;;1008246;29;20022;-80
2021/04/28 00:56:32;;;;;;;2.42;0.80;;;20.10;44.60;;;;;;1000638;29;20394;-81
2021/04/28 00:57:03;;;;;;;3.63;0.70;;;20.00;44.60;;;;;;1004062;29;20044;-81
2021/04/28 00:57:34;;;;;;;5.28;0.88;;;20.00;44.60;;;;;;1008113;29;20021;-81
2021/04/28 00:58:04;;;;;;;1.08;0.50;;;20.00;44.50;;;;;;1015953;29;20491;-81
2021/04/28 00:58:35;;;;;;;1.63;0.70;;;20.00;44.50;;;;;;1011707;29;20240;-81
2021/04/28 00:59:05;;;;;;;2.90;0.65;;;20.00;44.50;;;;;;1004346;29;20027;-80
2021/04/28 00:59:36;;;;;;;3.92;0.70;;;20.00;44.50;;;;;;1012940;29;20032;-80
2021/04/28 01:00:08;;;;;;;3.25;0.90;;;20.00;44.50;;;;;;1011476;29;20036;-82
2021/04/28 01:00:40;;;;;;;2.30;0.80;;;20.00;44.50;;;;;;1008288;29;20405;-80
2021/04/28 01:01:11;;;;;;;2.75;0.57;;;20.00;44.50;;;;;;1012020;29;20103;-83
2021/04/28 01:01:41;;;;;;;2.90;0.90;;;20.00;44.50;;;;;;1012385;29;20026;-82
2021/04/28 01:02:12;;;;;;;2.25;0.65;;;20.00;44.40;;;;;;1008427;29;20021;-81
2021/04/28 01:02:42;;;;;;;3.97;0.70;;;20.00;44.40;;;;;;1016172;29;20052;-83
2021/04/28 01:03:13;;;;;;;1.25;0.47;;;20.00;44.40;;;;;;1015909;29;20056;-81
2021/04/28 01:03:43;;;;;;;2.30;0.50;;;20.00;44.40;;;;;;1008121;29;20029;-80
2021/04/28 01:04:14;;;;;;;4.63;0.85;;;20.00;44.40;;;;;;1008483;29;20020;-80
2021/04/28 01:04:44;;;;;;;1.10;0.50;;;20.00;44.30;;;;;;1004654;29;20025;-82
2021/04/28 01:05:15;;;;;;;1.98;0.70;;;20.00;44.40;;;;;;1015591;29;20135;-81
2021/04/28 01:05:45;;;;;;;2.08;0.70;;;20.00;44.40;;;;;;1012198;29;20024;-80
2021/04/28 01:06:16;;;;;;;2.47;0.80;;;20.00;44.40;;;;;;1008725;29;20056;-81
2021/04/28 01:06:47;;;;;;;1.95;0.70;;;20.00;44.30;;;;;;1011934;29;20027;-81
2021/04/28 01:07:17;;;;;;;3.95;0.60;;;20.00;44.30;;;;;;1012155;29;20335;-81
2021/04/28 01:07:48;;;;;;;1.70;0.63;;;20.00;44.30;;;;;;1012411;29;20029;-82
2021/04/28 01:08:19;;;;;;;0.93;0.50;;;20.00;44.30;;;;;;1004198;29;20169;-82
2021/04/28 01:08:50;;;;;;;2.08;0.60;;;20.00;44.30;;;;;;1008046;29;20057;-81
2021/04/28 01:09:20;;;;;;;1.17;0.68;;;20.00;44.40;;;;;;1011757;29;20016;-81
2021/04/28 01:09:51;;;;;;;1.15;0.50;;;20.00;44.40;;;;;;1012294;29;20016;-83
2021/04/28 01:10:26;;;;;;;1.73;0.63;;;20.00;44.30;;;;;;1008536;29;20488;-81
2021/04/28 01:10:57;;;;;;;2.45;0.70;;;19.90;44.30;;;;;;1012203;29;20112;-83
2021/04/28 01:11:28;;;;;;;0.68;0.50;;;20.00;44.40;;;;;;1012089;29;20021;-81
2021/04/28 01:11:58;;;;;;;1.80;0.60;;;19.90;44.30;;;;;;1007634;29;20021;-81
2021/04/28 01:12:29;;;;;;;1.23;0.60;;;20.00;44.40;;;;;;1004122;29;20022;-83
2021/04/28 01:12:59;;;;;;;3.03;0.75;;;20.00;44.30;;;;;;1003827;29;20393;-81
2021/04/28 01:13:30;;;;;;;2.33;0.80;;;20.00;44.30;;;;;;1012743;29;20017;-81
2021/04/28 01:14:00;;;;;;;1.63;0.50;;;20.00;44.30;;;;;;1013483;29;20021;-81
2021/04/28 01:14:31;;;;;;;1.10;0.50;;;20.00;44.20;;;;;;1007970;29;20471;-82
2021/04/28 01:15:02;;;;;;;3.60;0.80;;;20.00;44.30;;;;;;1007700;29;20108;-80
2021/04/28 01:15:34;;;;;;;0.95;0.50;;;20.00;44.30;;;;;;1010638;29;20027;-81
2021/04/28 01:16:04;;;;;;;0.82;0.55;;;20.00;44.30;;;;;;1011686;29;20016;-81
2021/04/28 01:16:35;;;;;;;0.73;0.63;;;19.90;44.30;;;;;;1015615;29;20072;-83
2021/04/28 01:17:06;;;;;;;1.63;0.60;;;19.90;44.30;;;;;;1015787;29;20024;-80
2021/04/28 01:17:37;;;;;;;2.58;0.60;;;19.90;44.30;;;;;;1015829;29;20031;-81
2021/04/28 01:18:07;;;;;;;1.00;0.50;;;19.90;44.30;;;;;;1011832;29;20088;-82
2021/04/28 01:18:38;;;;;;;1.50;0.60;;;19.90;44.30;;;;;;1015129;29;20080;-80
2021/04/28 01:19:08;;;;;;;1.65;0.60;;;19.90;44.30;;;;;;1011709;29;20388;-80
2021/04/28 01:19:39;;;;;;;1.02;0.68;;;19.90;44.30;;;;;;1011866;29;20084;-81
2021/04/28 01:20:11;;;;;;;2.20;0.80;;;19.90;44.30;;;;;;1003852;29;20053;-82
2021/04/28 01:20:42;;;;;;;1.38;0.60;;;19.90;44.30;;;;;;1008097;29;20021;-81
2021/04/28 01:21:12;;;;;;;1.67;0.88;;;19.90;44.30;;;;;;1011449;29;20017;-82
2021/04/28 01:21:43;;;;;;;0.98;0.52;;;19.90;44.30;;;;;;1012323;29;20012;-81
2021/04/28 01:22:13;;;;;;;1.33;0.68;;;19.90;44.30;;;;;;1008048;29;20472;-83
2021/04/28 01:22:44;;;;;;;1.20;0.60;;;19.90;44.30;;;;;;1004328;29;20132;-80
2021/04/28 01:23:18;;;;;;;1.90;0.60;;;19.90;44.20;;;;;;1008027;29;20024;-81
2021/04/28 01:23:49;;;;;;;2.28;0.70;;;19.90;44.30;;;;;;1007654;29;20025;-80
2021/04/28 01:24:20;;;;;;;3.83;0.70;;;19.90;44.20;;;;;;1007772;29;20484;-81
2021/04/28 01:24:50;;;;;;;1.92;0.80;;;19.90;44.30;;;;;;1004747;29;20017;-81
2021/04/28 01:25:22;;;;;;;0.80;0.50;;;19.90;44.30;;;;;;1017303;29;20004;-82
2021/04/28 01:25:53;;;;;;;0.85;0.60;;;19.90;44.90;;;;;;1015477;29;20043;-81
2021/04/28 01:26:25;;;;;;;1.13;0.57;;;19.90;44.20;;;;;;1009918;29;20035;-83
2021/04/28 01:26:56;;;;;;;1.23;0.47;;;19.90;44.20;;;;;;1010849;29;20036;-83
2021/04/28 01:27:26;;;;;;;2.55;0.60;;;20.00;44.20;;;;;;1014546;29;20024;-82
2021/04/28 01:28:19;;;;;;;1.67;0.70;;;19.90;44.30;;;;;;1013259;29;20095;-82
2021/04/28 01:28:49;;;;;;;1.38;0.60;;;19.90;44.30;;;;;;1006935;29;20090;-81
2021/04/28 01:29:22;;;;;;;1.67;0.60;;;19.90;44.30;;;;;;1007653;29;20021;-81
2021/04/28 01:29:53;;;;;;;1.17;0.60;;;19.90;44.20;;;;;;1003855;29;20093;-81
2021/04/28 01:30:30;;;;;;;1.33;0.70;;;19.90;44.20;;;;;;1002862;29;20531;-82
2021/04/28 01:31:11;;;;;;;1.55;0.68;;;19.90;44.20;;;;;;1008683;29;20526;-81
2021/04/28 01:31:42;;;;;;;0.75;0.70;;;19.90;44.20;;;;;;1013053;29;20064;-81
2021/04/28 01:32:14;;;;;;;1.33;0.80;;;19.90;44.20;;;;;;1011466;29;20020;-81
2021/04/28 01:32:46;;;;;;;2.00;0.80;;;19.90;44.20;;;;;;1015379;29;20095;-81
2021/04/28 01:33:22;;;;;;;0.70;0.50;;;20.00;44.30;;;;;;1011513;29;20077;-79
2021/04/28 01:33:58;;;;;;;0.73;0.60;;;19.90;44.10;;;;;;1007064;29;20784;-81
2021/04/28 01:34:28;;;;;;;1.50;0.70;;;19.90;44.20;;;;;;1011419;29;20411;-82
2021/04/28 01:34:59;;;;;;;0.70;0.60;;;19.90;44.20;;;;;;1015181;29;20060;-82
2021/04/28 01:35:29;;;;;;;1.10;0.50;;;19.90;44.10;;;;;;1007245;29;20105;-81
2021/04/28 01:36:00;;;;;;;1.60;0.65;;;19.90;44.20;;;;;;1011554;29;20032;-81
2021/04/28 01:36:33;;;;;;;1.80;0.60;;;19.90;44.20;;;;;;1015350;29;20546;-81
2021/04/28 01:37:04;;;;;;;1.75;0.47;;;19.90;44.20;;;;;;1011300;29;20503;-81
2021/04/28 01:37:34;;;;;;;1.48;0.70;;;19.90;44.30;;;;;;1015500;29;20028;-83
2021/04/28 01:38:05;;;;;;;1.85;0.60;;;19.90;44.30;;;;;;1011433;29;20025;-81
2021/04/28 01:38:40;;;;;;;2.05;0.60;;;19.90;44.30;;;;;;1014866;29;20043;-81
2021/04/28 01:39:11;;;;;;;0.82;0.50;;;19.90;44.20;;;;;;1019199;29;20028;-80
2021/04/28 01:39:42;;;;;;;1.15;0.60;;;19.90;44.20;;;;;;1014498;29;20028;-82
2021/04/28 01:40:13;;;;;;;2.28;0.70;;;19.90;44.20;;;;;;1011474;29;20067;-82
2021/04/28 01:40:44;;;;;;;0.82;0.63;;;19.90;44.20;;;;;;1011495;29;20483;-81
2021/04/28 01:41:15;;;;;;;1.00;0.45;;;19.90;44.20;;;;;;1000093;29;20026;-83
2021/04/28 01:41:46;;;;;;;0.90;0.57;;;19.90;44.30;;;;;;1015296;29;20372;-81
2021/04/28 01:42:17;;;;;;;0.50;0.50;;;19.90;44.20;;;;;;1015428;29;20023;-81
2021/04/28 01:42:48;;;;;;;1.10;0.50;;;19.90;44.20;;;;;;1011216;29;20450;-81
2021/04/28 01:43:19;;;;;;;1.67;0.70;;;19.90;44.20;;;;;;1007446;29;20255;-81
2021/04/28 01:43:49;;;;;;;2.03;0.70;;;19.90;44.20;;;;;;1007239;29;20037;-81
2021/04/28 01:44:21;;;;;;;0.82;0.60;;;19.90;44.10;;;;;;1006195;29;20009;-82
2021/04/28 01:44:51;;;;;;;1.83;0.80;;;19.90;44.20;;;;;;1010073;29;20431;-82
2021/04/28 01:45:22;;;;;;;1.00;0.70;;;19.90;44.20;;;;;;1010419;29;20013;-83
2021/04/28 01:45:53;;;;;;;1.27;0.70;;;19.90;44.20;;;;;;1011472;29;20060;-82
2021/04/28 01:46:25;;;;;;;0.80;0.52;;;19.90;44.10;;;;;;1011211;29;20024;-81
2021/04/28 01:46:56;;;;;;;0.60;0.50;;;19.90;44.20;;;;;;1003530;29;20525;-81
2021/04/28 01:47:26;;;;;;;0.77;0.63;;;19.90;44.20;;;;;;1007680;29;20022;-81
2021/04/28 01:47:57;;;;;;;0.47;0.40;;;19.90;44.10;;;;;;1015427;29;20037;-81
2021/04/28 01:48:27;;;;;;;1.60;0.52;;;19.90;44.10;;;;;;1003894;29;20026;-82
2021/04/28 01:48:58;;;;;;;0.88;0.50;;;19.90;44.10;;;;;;1004780;29;20516;-82
2021/04/28 01:49:29;;;;;;;0.85;0.55;;;19.90;44.10;;;;;;1011440;29;20020;-81
2021/04/28 01:50:00;;;;;;;1.33;0.60;;;19.90;44.10;;;;;;1007655;29;20021;-81
2021/04/28 01:50:31;;;;;;;0.60;0.60;;;19.90;44.10;;;;;;1011692;29;20025;-81
2021/04/28 01:51:01;;;;;;;2.25;0.60;;;19.90;44.00;;;;;;1007641;29;20562;-81
2021/04/28 01:51:32;;;;;;;1.10;0.60;;;19.90;44.10;;;;;;1007147;29;20032;-81
2021/04/28 01:52:03;;;;;;;1.55;0.63;;;19.90;44.10;;;;;;1006617;29;20032;-81
2021/04/28 01:52:34;;;;;;;0.82;0.50;;;19.90;44.10;;;;;;1011667;29;20013;-82
2021/04/28 01:53:04;;;;;;;0.60;0.50;;;19.90;44.00;;;;;;1007663;29;20472;-81
2021/04/28 01:53:36;;;;;;;1.10;0.55;;;19.90;44.00;;;;;;1004446;29;20010;-81
2021/04/28 01:54:09;;;;;;;1.20;0.55;;;19.90;44.00;;;;;;1007550;29;20045;-82
2021/04/28 01:54:39;;;;;;;1.05;0.65;;;19.90;44.00;;;;;;1004101;29;20014;-81
2021/04/28 01:55:10;;;;;;;0.70;0.60;;;19.90;44.00;;;;;;1011043;29;20028;-81
2021/04/28 01:55:41;;;;;;;0.60;0.52;;;19.90;44.00;;;;;;1011270;29;20024;-81
2021/04/28 01:56:11;;;;;;;1.02;0.68;;;19.90;44.10;;;;;;1003806;29;20467;-83
2021/04/28 01:56:43;;;;;;;1.52;0.60;;;19.90;44.10;;;;;;1009506;29;20021;-82
2021/04/28 01:57:14;;;;;;;0.60;0.50;;;19.90;44.00;;;;;;1011313;29;20056;-82
2021/04/28 01:57:44;;;;;;;0.73;0.57;;;19.90;44.10;;;;;;1007683;29;20454;-81
2021/04/28 01:58:16;;;;;;;1.58;0.50;;;19.90;44.10;;;;;;1007614;29;20009;-82
2021/04/28 01:58:47;;;;;;;0.80;0.60;;;19.90;44.10;;;;;;1010795;29;20044;-81
2021/04/28 01:59:20;;;;;;;0.95;0.70;;;19.90;44.00;;;;;;1015651;29;20008;-80
2021/04/28 01:59:51;;;;;;;1.15;0.45;;;19.90;44.10;;;;;;1011995;29;20408;-81
2021/04/28 02:00:22;;;;;;;1.05;0.60;;;19.90;43.90;;;;;;1011062;29;20104;-81
2021/04/28 02:00:53;;;;;;;1.15;0.70;;;19.90;44.00;;;;;;1019671;29;20087;-81
2021/04/28 02:01:23;;;;;;;0.73;0.50;;;19.90;44.00;;;;;;1011689;29;20112;-81
2021/04/28 02:01:57;;;;;;;1.25;0.63;;;19.90;44.00;;;;;;1011607;29;20017;-84
2021/04/28 02:02:28;;;;;;;0.90;0.60;;;19.90;44.10;;;;;;1008141;29;20009;-81
2021/04/28 02:02:58;;;;;;;1.05;0.70;;;19.90;44.10;;;;;;1007890;29;20021;-82
2021/04/28 02:03:29;;;;;;;1.00;0.60;;;19.90;44.10;;;;;;1011126;29;20025;-81
2021/04/28 02:03:59;;;;;;;1.05;0.60;;;19.90;44.10;;;;;;1011293;29;20071;-81
2021/04/28 02:04:30;;;;;;;0.68;0.50;;;19.90;44.10;;;;;;1011654;29;20069;-81
2021/04/28 02:05:02;;;;;;;0.80;0.50;;;19.90;44.00;;;;;;1011553;29;20410;-82
2021/04/28 02:05:32;;;;;;;1.02;0.50;;;19.90;44.00;;;;;;1011374;29;20009;-81
2021/04/28 02:06:03;;;;;;;1.02;0.50;;;19.90;44.70;;;;;;1011436;29;20116;-80
2021/04/28 02:06:37;;;;;;;1.02;0.60;;;19.90;44.00;;;;;;1003881;29;20089;-82
2021/04/28 02:07:08;;;;;;;1.30;0.60;;;19.90;44.00;;;;;;1007575;29;20474;-81
2021/04/28 02:07:41;;;;;;;0.98;0.60;;;19.90;44.00;;;;;;1011487;29;20016;-81
2021/04/28 02:08:11;;;;;;;1.42;0.60;;;19.90;43.90;;;;;;1007579;29;20494;-81
2021/04/28 02:08:42;;;;;;;1.20;0.60;;;19.90;44.00;;;;;;1011133;29;20019;-83
2021/04/28 02:09:13;;;;;;;1.02;0.60;;;19.90;44.00;;;;;;1015296;29;20024;-84
2021/04/28 02:09:43;;;;;;;1.17;0.60;;;19.90;44.00;;;;;;1013669;29;20088;-81
2021/04/28 02:10:14;;;;;;;0.73;0.60;;;19.90;44.00;;;;;;1011448;29;20037;-84
2021/04/28 02:10:45;;;;;;;1.30;0.60;;;19.90;44.00;;;;;;1019479;29;20023;-83
2021/04/28 02:11:16;;;;;;;0.80;0.68;;;19.90;44.00;;;;;;1015393;29;20020;-80
2021/04/28 02:11:46;;;;;;;1.17;0.52;;;19.90;44.00;;;;;;1019492;29;20498;-81
2021/04/28 02:12:17;;;;;;;0.88;0.50;;;19.90;44.00;;;;;;1019466;29;20496;-81
2021/04/28 02:12:48;;;;;;;1.15;0.60;;;19.90;44.00;;;;;;1012564;29;20027;-81
2021/04/28 02:13:19;;;;;;;1.35;0.60;;;19.90;44.00;;;;;;1011699;29;20029;-82
2021/04/28 02:13:50;;;;;;;1.48;0.68;;;19.90;43.90;;;;;;1008272;29;20051;-82
2021/04/28 02:14:21;;;;;;;1.98;0.55;;;19.90;44.00;;;;;;1003866;29;20052;-81
2021/04/28 02:14:51;;;;;;;0.70;0.60;;;19.90;44.00;;;;;;1007947;29;20112;-83
2021/04/28 02:15:23;;;;;;;0.50;0.50;;;19.90;44.00;;;;;;1006913;29;20035;-83
2021/04/28 02:15:54;;;;;;;1.30;0.65;;;19.90;44.00;;;;;;1000284;29;20060;-82
2021/04/28 02:16:26;;;;;;;0.90;0.68;;;19.90;44.00;;;;;;1003918;29;20022;-81
2021/04/28 02:16:56;;;;;;;1.23;0.50;;;19.90;44.00;;;;;;1007807;29;20021;-82
2021/04/28 02:17:27;;;;;;;1.65;0.70;;;19.90;44.60;;;;;;1000150;29;20030;-83
2021/04/28 02:18:00;;;;;;;1.52;0.60;;;19.90;44.00;;;;;;1003935;29;20036;-81
2021/04/28 02:18:30;;;;;;;0.70;0.50;;;19.90;44.00;;;;;;1011016;29;20029;-81
2021/04/28 02:19:03;;;;;;;1.88;0.98;;;19.80;44.00;;;;;;1007783;29;20491;-83
2021/04/28 02:19:34;;;;;;;1.20;0.60;;;19.90;44.00;;;;;;1015621;29;20063;-82
2021/04/28 02:20:07;;;;;;;0.80;0.50;;;19.90;44.00;;;;;;1011611;29;20280;-80
2021/04/28 02:20:38;;;;;;;0.50;0.50;;;19.90;44.10;;;;;;1007822;29;20098;-81
2021/04/28 02:21:08;;;;;;;2.33;0.65;;;19.90;44.10;;;;;;1007844;29;20028;-81
2021/04/28 02:21:40;;;;;;;2.60;0.70;;;19.90;44.10;;;;;;1007898;29;20400;-81
2021/04/28 02:22:10;;;;;;;3.40;0.52;;;19.90;44.10;;;;;;1007863;29;20076;-80
2021/04/28 02:22:41;;;;;;;0.60;0.50;;;19.90;44.00;;;;;;1007815;29;20138;-81
2021/04/28 02:23:12;;;;;;;1.52;0.70;;;19.90;44.10;;;;;;1015748;29;20499;-80
2021/04/28 02:23:43;;;;;;;1.05;0.50;;;19.90;44.00;;;;;;1011323;29;20399;-81
2021/04/28 02:24:13;;;;;;;1.17;0.50;;;19.90;44.00;;;;;;1008022;29;20029;-81
2021/04/28 02:24:44;;;;;;;1.55;0.60;;;19.90;44.00;;;;;;1007560;29;20109;-80
2021/04/28 02:25:14;;;;;;;1.25;0.68;;;19.90;44.10;;;;;;1003713;29;20026;-79
2021/04/28 02:25:45;;;;;;;1.10;0.70;;;19.90;44.10;;;;;;1011604;29;20031;-82
2021/04/28 02:26:15;;;;;;;1.63;0.60;;;19.90;44.10;;;;;;1007518;29;20021;-83
2021/04/28 02:26:48;;;;;;;1.92;0.60;;;19.90;44.00;;;;;;1004043;29;20022;-81
2021/04/28 02:27:18;;;;;;;1.15;0.50;;;19.90;44.00;;;;;;1011467;29;20029;-81
2021/04/28 02:27:53;;;;;;;2.28;0.63;;;19.90;44.00;;;;;;1011793;29;20289;-81
2021/04/28 02:28:23;;;;;;;0.77;0.60;;;19.90;44.00;;;;;;1011609;29;20021;-80
2021/04/28 02:28:54;;;;;;;1.00;0.70;;;19.90;44.00;;;;;;1011152;29;20036;-80
2021/04/28 02:29:24;;;;;;;0.70;0.50;;;19.80;44.00;;;;;;1011721;29;20461;-81
2021/04/28 02:29:55;;;;;;;1.45;0.70;;;19.90;44.60;;;;;;1007835;29;20027;-81
2021/04/28 02:30:27;;;;;;;1.35;0.70;;;19.90;44.00;;;;;;1007278;29;20040;-81
2021/04/28 02:30:58;;;;;;;1.02;0.68;;;19.80;43.90;;;;;;1003954;29;20567;-82
2021/04/28 02:31:29;;;;;;;1.10;0.60;;;19.80;44.00;;;;;;1011779;29;20027;-80
2021/04/28 02:32:00;;;;;;;1.10;0.70;;;19.90;44.00;;;;;;1011889;29;20480;-81
2021/04/28 02:32:30;;;;;;;0.60;0.50;;;19.90;44.00;;;;;;1008089;29;20501;-81
2021/04/28 02:33:01;;;;;;;0.80;0.60;;;19.80;44.00;;;;;;1007677;29;20025;-80
2021/04/28 02:33:33;;;;;;;1.17;0.50;;;19.80;43.90;;;;;;1007640;29;20021;-80
2021/04/28 02:34:04;;;;;;;1.77;0.70;;;19.80;43.90;;;;;;1011719;29;20017;-79
2021/04/28 02:34:35;;;;;;;1.33;0.70;;;19.90;44.00;;;;;;1010896;29;20053;-82
2021/04/28 02:35:06;;;;;;;1.08;0.60;;;19.80;43.90;;;;;;1011111;29;20361;-82
2021/04/28 02:35:37;;;;;;;1.13;0.63;;;19.90;44.00;;;;;;1015479;29;20506;-80
2021/04/28 02:36:08;;;;;;;1.27;0.57;;;19.90;43.80;;;;;;1015671;29;20040;-80
2021/04/28 02:36:41;;;;;;;0.75;0.60;;;19.90;43.80;;;;;;1007956;29;20058;-80
2021/04/28 02:37:11;;;;;;;0.95;0.50;;;19.90;43.90;;;;;;1011680;29;20021;-81
2021/04/28 02:37:42;;;;;;;1.40;0.63;;;19.90;43.90;;;;;;1015829;29;20031;-81
2021/04/28 02:38:24;;;;;;;0.57;0.50;;;19.90;43.80;;;;;;1007635;29;20025;-81
2021/04/28 02:38:57;;;;;;;0.88;0.50;;;19.90;43.90;;;;;;1011333;29;20036;-81
2021/04/28 02:39:36;;;;;;;1.52;0.70;;;19.90;43.80;;;;;;1011767;29;20029;-81
2021/04/28 02:40:11;;;;;;;1.40;0.70;;;19.90;43.80;;;;;;1004181;29;20045;-81
2021/04/28 02:40:42;;;;;;;0.70;0.45;;;19.90;43.80;;;;;;1008140;29;20451;-80
2021/04/28 02:41:13;;;;;;;1.05;0.50;;;19.90;43.80;;;;;;1004245;29;20040;-80
2021/04/28 02:41:44;;;;;;;2.60;0.60;;;19.90;43.70;;;;;;1008613;29;20036;-81
2021/04/28 02:42:15;;;;;;;0.90;0.70;;;19.90;43.80;;;;;;1012048;29;20033;-80